Time;durP1;ratioP1;P1;durP2;ratioP2;P2;SDS_P1;SDS_P2;PMS_P1;PMS_P2;Temp;Humidity;BMP_temperature;BMP_pressure;BME280_temperature;BME280_humidity;BME280_pressure;Samples;Min_cycle;Max_cycle;Signal;HPM_P1;HPM_P2
2024/03/11 00:08:25;;;;;;;10.7;6.2;;;;;;;8.03;88.81;97775;;;;
2024/03/11 00:19:25;;;;;;;12.1;7.4;;;;;;;8.09;88.74;97766.666666667;;;;
2024/03/11 00:29:24;;;;;;;12.1;7.4;;;;;;;8.02;88.78;97760;;;;
2024/03/11 00:40:24;;;;;;;12.1;7.4;;;;;;;8.03;88.86;97753.333333333;;;;
2024/03/11 00:51:24;;;;;;;11.1;6;;;;;;;8.05;88.51;97741.666666667;;;;
2024/03/11 01:02:24;;;;;;;11.1;6;;;;;;;8.13;88.06;97738.333333333;;;;
2024/03/11 01:13:24;;;;;;;11.1;6;;;;;;;8.19;87.72;97720;;;;
2024/03/11 01:24:24;;;;;;;8.6;5.4;;;;;;;8.21;87.37;97715;;;;
2024/03/11 01:34:24;;;;;;;8.6;5.4;;;;;;;8.19;87.13;97701.666666667;;;;
2024/03/11 01:44:24;;;;;;;9.5;5;;;;;;;8.17;87.21;97695;;;;
2024/03/11 01:54:25;;;;;;;9.5;5;;;;;;;8.16;86.8;97690;;;;
2024/03/11 02:05:24;;;;;;;9.5;5;;;;;;;7.81;88.11;97680;;;;
2024/03/11 02:16:26;;;;;;;11;5.6;;;;;;;7.89;87.72;97676.666666667;;;;
2024/03/11 02:27:24;;;;;;;11;5.6;;;;;;;8;87.62;97673.333333333;;;;
2024/03/11 02:37:25;;;;;;;11;5.6;;;;;;;7.91;87.46;97670;;;;
2024/03/11 02:47:26;;;;;;;10.8;5.2;;;;;;;7.66;88.63;97656.666666667;;;;
2024/03/11 02:58:24;;;;;;;10.8;5.2;;;;;;;7.89;88.14;97658.333333333;;;;
2024/03/11 03:08:25;;;;;;;10.8;5.2;;;;;;;7.9;88.61;97642.5;;;;
2024/03/11 03:19:24;;;;;;;11.1;5.2;;;;;;;8.11;88.23;97647.5;;;;
2024/03/11 03:30:26;;;;;;;11.1;5.2;;;;;;;8.2;87.93;97647.5;;;;
2024/03/11 03:41:25;;;;;;;11.1;5.2;;;;;;;8.23;87.73;97657.5;;;;
2024/03/11 03:52:25;;;;;;;8.7;5;;;;;;;8.26;87.87;97660;;;;
2024/03/11 04:03:27;;;;;;;8.7;5;;;;;;;8.14;88.37;97662.5;;;;
2024/03/11 04:14:24;;;;;;;9.6;5.4;;;;;;;8.19;88.34;97662.5;;;;
2024/03/11 04:25:26;;;;;;;9.6;5.4;;;;;;;8.14;88.4;97655;;;;
2024/03/11 04:35:25;;;;;;;9.6;5.4;;;;;;;7.89;90.09;97647.5;;;;
2024/03/11 04:46:24;;;;;;;9;5.6;;;;;;;8;89.85;97662.5;;;;
2024/03/11 04:56:25;;;;;;;9;5.6;;;;;;;7.88;90.66;97655;;;;
2024/03/11 05:06:25;;;;;;;9;5.6;;;;;;;7.99;90.75;97660;;;;
2024/03/11 05:17:24;;;;;;;9.8;5.7;;;;;;;7.97;90.62;97652.5;;;;
2024/03/11 05:27:25;;;;;;;9.8;5.7;;;;;;;8.12;90.62;97640;;;;
2024/03/11 05:38:24;;;;;;;9.8;5.7;;;;;;;8.08;90.6;97655;;;;
2024/03/11 05:49:28;;;;;;;9.7;5.6;;;;;;;8.27;90.51;97685;;;;
2024/03/11 06:00:25;;;;;;;9.7;5.6;;;;;;;8.36;89.82;97740;;;;
2024/03/11 06:10:25;;;;;;;9.7;5.6;;;;;;;8.51;89.96;97743.333333333;;;;
2024/03/11 06:21:25;;;;;;;12.5;7.4;;;;;;;8.75;89.73;97758.333333333;;;;
2024/03/11 06:32:30;;;;;;;12.5;7.4;;;;;;;8.86;89.13;97761.666666667;;;;
2024/03/11 06:42:25;;;;;;;12.5;7.4;;;;;;;8.95;89.49;97770;;;;
2024/03/11 06:52:27;;;;;;;;;;;;;;;;;97800;;;;
2024/03/11 07:03:29;;;;;;;;;;;;;;;;;97800;;;;
2024/03/11 07:14:25;;;;;;;;;;;;;;;;;97810;;;;
2024/03/11 07:24:25;;;;;;;;;;;;;;;;;97812.5;;;;
2024/03/11 07:35:25;;;;;;;;;;;;;;;;;97825;;;;
2024/03/11 07:45:25;;;;;;;;;;;;;;;;;97830;;;;
2024/03/11 07:56:25;;;;;;;;;;;;;;;;;97840;;;;
2024/03/11 08:06:25;;;;;;;;;;;;;;;;;97852.5;;;;
2024/03/11 08:16:25;;;;;;;;;;;;;;;;;97865;;;;
2024/03/11 08:26:25;;;;;;;;;;;;;;;;;97860;;;;
2024/03/11 08:37:25;;;;;;;;;;;;;;;;;97877.5;;;;
2024/03/11 08:48:26;;;;;;;;;;;;;;;;;97880;;;;
2024/03/11 08:59:25;;;;;;;;;;;;;;;;;97892.5;;;;
2024/03/11 09:09:25;;;;;;;;;;;;;;;;;97885;;;;
2024/03/11 09:20:27;;;;;;;;;;;;;;;;;97887.5;;;;
2024/03/11 09:31:26;;;;;;;;;;;;;;;;;97880;;;;
2024/03/11 09:41:25;;;;;;;;;;;;;;;11.65;86.2;97850;;;;
2024/03/11 09:52:25;;;;;;;12.4;9.1;;;;;;;11.88;85.42;97855;;;;
2024/03/11 10:03:26;;;;;;;12.4;9.1;;;;;;;12.13;85.48;97848.333333333;;;;
2024/03/11 10:13:25;;;;;;;11.9;9.1;;;;;;;12.2;85.91;97848.333333333;;;;
2024/03/11 10:23:25;;;;;;;11.9;9.1;;;;;;;12.58;84.25;97853.333333333;;;;
2024/03/11 10:33:25;;;;;;;11.9;9.1;;;;;;;12.88;84.14;97851.666666667;;;;
2024/03/11 10:44:29;;;;;;;10.9;8.3;;;;;;;12.7;84.09;97850;;;;
2024/03/11 10:54:28;;;;;;;10.9;8.3;;;;;;;12.78;85;97851.666666667;;;;
2024/03/11 11:05:32;;;;;;;10.9;8.3;;;;;;;12.91;84.94;97845;;;;
2024/03/11 11:16:26;;;;;;;13.5;10;;;;;;;13.13;85.3;97851.666666667;;;;
2024/03/11 11:27:25;;;;;;;13.5;10;;;;;;;13.48;83.49;97851.666666667;;;;
2024/03/11 11:37:25;;;;;;;13.5;10;;;;;;;13.36;82.9;97846.666666667;;;;
2024/03/11 11:48:26;;;;;;;14.3;10.5;;;;;;;13.1;84.41;97846.666666667;;;;
2024/03/11 11:58:25;;;;;;;14.3;10.5;;;;;;;13.26;83.57;97848.333333333;;;;
2024/03/11 12:08:25;;;;;;;14.3;10.5;;;;;;;13.37;83.98;97846.666666667;;;;
2024/03/11 12:19:26;;;;;;;13;10.2;;;;;;;13.29;84.27;97850;;;;
2024/03/11 12:29:25;;;;;;;13;10.2;;;;;;;13.03;84.43;97841.666666667;;;;
2024/03/11 12:40:25;;;;;;;13;10.2;;;;;;;13.23;84.57;97840;;;;
2024/03/11 12:50:25;;;;;;;15.6;11.7;;;;;;;13.02;84.24;97835;;;;
2024/03/11 13:01:25;;;;;;;15.6;11.7;;;;;;;12.8;85.24;97830;;;;
2024/03/11 13:11:25;;;;;;;15.6;11.7;;;;;;;12.97;85.24;97830;;;;
2024/03/11 13:21:25;;;;;;;17.9;14.5;;;;;;;12.96;84.78;97831.666666667;;;;
2024/03/11 13:31:27;;;;;;;17.9;14.5;;;;;;;13.16;84.72;97831.666666667;;;;
2024/03/11 13:42:26;;;;;;;17.9;14.5;;;;;;;13.11;84.61;97826.666666667;;;;
2024/03/11 13:52:25;;;;;;;20.4;15.7;;;;;;;13.09;84.61;97821.666666667;;;;
2024/03/11 14:02:25;;;;;;;20.4;15.7;;;;;;;13.03;84.64;97818.333333333;;;;
2024/03/11 14:13:25;;;;;;;19.6;15.5;;;;;;;12.78;85.71;97816.666666667;;;;
2024/03/11 14:23:25;;;;;;;19.6;15.5;;;;;;;12.77;85.67;97803.333333333;;;;
2024/03/11 14:34:26;;;;;;;19.6;15.5;;;;;;;12.77;86.04;97798.333333333;;;;
2024/03/11 14:44:25;;;;;;;24.9;21.3;;;;;;;12.64;86.58;97793.333333333;;;;
2024/03/11 14:55:32;;;;;;;24.9;21.3;;;;;;;12.53;86.67;97830;;;;
2024/03/11 15:05:25;;;;;;;24.9;21.3;;;;;;;12.37;87.73;97777.5;;;;
2024/03/11 15:15:25;;;;;;;19.8;16.5;;;;;;;12.44;87.71;97782.5;;;;
2024/03/11 15:25:25;;;;;;;19.8;16.5;;;;;;;12.45;87.22;97785;;;;
2024/03/11 15:36:25;;;;;;;19.8;16.5;;;;;;;12.41;86.6;97787.5;;;;
2024/03/11 15:46:27;;;;;;;15.4;13.3;;;;;;;12.24;86.65;97787.5;;;;
2024/03/11 15:57:25;;;;;;;15.4;13.3;;;;;;;12.11;86.85;97794;;;;
2024/03/11 16:08:27;;;;;;;15.4;13.3;;;;;;;11.95;87.02;97798;;;;
2024/03/11 16:19:25;;;;;;;15.7;9.4;;;;;;;11.72;87.56;97794;;;;
2024/03/11 16:29:25;;;;;;;15.7;9.4;;;;;;;11.64;87.63;97795;;;;
2024/03/11 16:39:25;;;;;;;15.7;9.4;;;;;;;11.32;88.65;97811.666666667;;;;
2024/03/11 16:49:25;;;;;;;32.6;20.5;;;;;;;11;90.44;97811.666666667;;;;
2024/03/11 17:00:33;;;;;;;32.6;20.5;;;;;;;10.98;90.22;97818.333333333;;;;
2024/03/11 17:11:25;;;;;;;32.6;20.5;;;;;;;10.7;90.43;97830;;;;
2024/03/11 17:21:25;;;;;;;22.6;13.9;;;;;;;10.05;91.02;97820;;;;
2024/03/11 17:31:26;;;;;;;22.6;13.9;;;;;;;10.22;90.38;97828.333333333;;;;
2024/03/11 17:42:26;;;;;;;22.6;13.9;;;;;;;9.8;90.56;97836.666666667;;;;
2024/03/11 17:52:25;;;;;;;26.9;17.1;;;;;;;9.51;91.41;97841.666666667;;;;
2024/03/11 18:03:25;;;;;;;26.9;17.1;;;;;;;9.43;91.17;97855;;;;
2024/03/11 18:13:25;;;;;;;32.9;22;;;;;;;9.42;90.55;97851.666666667;;;;
2024/03/11 18:24:25;;;;;;;32.9;22;;;;;;;9.04;91.24;97861.666666667;;;;
2024/03/11 18:34:25;;;;;;;32.9;22;;;;;;;9.09;91.32;97870;;;;
2024/03/11 18:45:26;;;;;;;36.1;21.9;;;;;;;8.8;91.48;97865;;;;
2024/03/11 18:56:25;;;;;;;36.1;21.9;;;;;;;8.75;91.85;97851.666666667;;;;
2024/03/11 19:06:25;;;;;;;36.1;21.9;;;;;;;8.49;92.2;97858.333333333;;;;
2024/03/11 19:17:26;;;;;;;35.7;23.9;;;;;;;8.57;91.89;97855;;;;
2024/03/11 19:27:25;;;;;;;35.7;23.9;;;;;;;8.56;91.99;97855;;;;
2024/03/11 19:38:25;;;;;;;35.7;23.9;;;;;;;8.33;92.47;97855;;;;
2024/03/11 19:49:26;;;;;;;35.2;22.3;;;;;;;8.43;91.97;97850;;;;
2024/03/11 20:00:25;;;;;;;35.2;22.3;;;;;;;8.14;92.77;97866.666666667;;;;
2024/03/11 20:11:25;;;;;;;35.2;22.3;;;;;;;8.35;91.99;97868.333333333;;;;
2024/03/11 20:21:25;;;;;;;32.7;20.6;;;;;;;8.31;91.72;97860;;;;
2024/03/11 20:32:25;;;;;;;32.7;20.6;;;;;;;8.22;91.55;97873.333333333;;;;
2024/03/11 20:42:25;;;;;;;32.7;20.6;;;;;;;8.17;91.23;97875;;;;
2024/03/11 20:53:25;;;;;;;33.7;21.3;;;;;;;8;91.18;97875;;;;
2024/03/11 21:03:25;;;;;;;33.7;21.3;;;;;;;7.85;91.26;97871.666666667;;;;
2024/03/11 21:14:26;;;;;;;36.5;22.6;;;;;;;7.86;91.33;97871.666666667;;;;
2024/03/11 21:25:27;;;;;;;36.5;22.6;;;;;;;7.87;91.42;97873.333333333;;;;
2024/03/11 21:35:25;;;;;;;36.5;22.6;;;;;;;7.93;90.98;97883.333333333;;;;
2024/03/11 21:46:25;;;;;;;29.3;19.8;;;;;;;7.75;91.27;97876.666666667;;;;
2024/03/11 21:57:25;;;;;;;29.3;19.8;;;;;;;7.76;91.27;97876.666666667;;;;
2024/03/11 22:07:25;;;;;;;29.3;19.8;;;;;;;7.59;91.4;97873.333333333;;;;
2024/03/11 22:18:25;;;;;;;26.7;17.8;;;;;;;7.65;91.61;97871.666666667;;;;
2024/03/11 22:29:28;;;;;;;26.7;17.8;;;;;;;7.67;91.18;97863.333333333;;;;
2024/03/11 22:40:25;;;;;;;26.7;17.8;;;;;;;7.69;91.22;97865;;;;
2024/03/11 22:51:27;;;;;;;30.9;19.1;;;;;;;7.49;91.67;97861.666666667;;;;
2024/03/11 23:02:27;;;;;;;30.9;19.1;;;;;;;7.6;91.34;97860;;;;
2024/03/11 23:12:25;;;;;;;30.9;19.1;;;;;;;7.45;91.59;97861.666666667;;;;
2024/03/11 23:23:25;;;;;;;27.1;17.2;;;;;;;7.55;91.65;97865;;;;
2024/03/11 23:34:25;;;;;;;27.1;17.2;;;;;;;7.58;91.55;97858.333333333;;;;
2024/03/11 23:45:26;;;;;;;25.1;15.6;;;;;;;7.62;91.41;97860;;;;
2024/03/11 23:55:27;;;;;;;25.1;15.6;;;;;;;7.58;91.5;97863.333333333;;;;
